sensor_id;sensor_type;location;lat;lon;timestamp;P1;durP1;ratioP1;P2;durP2;ratioP2
10565;SDS011;5331;48.148;16.326;2023-11-18T00:03:10;2.97;;;2.67;;
10565;SDS011;5331;48.148;16.326;2023-11-18T00:05:36;2.83;;;2.63;;
10565;SDS011;5331;48.148;16.326;2023-11-18T00:08:02;2.73;;;2.53;;
10565;SDS011;5331;48.148;16.326;2023-11-18T00:10:29;3.63;;;2.80;;
10565;SDS011;5331;48.148;16.326;2023-11-18T00:12:55;2.73;;;2.53;;
10565;SDS011;5331;48.148;16.326;2023-11-18T00:15:21;2.90;;;2.70;;
10565;SDS011;5331;48.148;16.326;2023-11-18T00:17:48;3.27;;;3.03;;
10565;SDS011;5331;48.148;16.326;2023-11-18T00:38:04;2.80;;;2.60;;
10565;SDS011;5331;48.148;16.326;2023-11-18T00:40:30;3.00;;;2.77;;
10565;SDS011;5331;48.148;16.326;2023-11-18T00:42:56;3.10;;;2.90;;
10565;SDS011;5331;48.148;16.326;2023-11-18T00:45:22;3.37;;;3.07;;
10565;SDS011;5331;48.148;16.326;2023-11-18T00:47:49;3.00;;;2.80;;
10565;SDS011;5331;48.148;16.326;2023-11-18T00:50:15;3.17;;;2.97;;
10565;SDS011;5331;48.148;16.326;2023-11-18T00:52:42;3.57;;;2.97;;
10565;SDS011;5331;48.148;16.326;2023-11-18T01:08:46;2.90;;;2.70;;
10565;SDS011;5331;48.148;16.326;2023-11-18T01:11:15;3.10;;;2.90;;
10565;SDS011;5331;48.148;16.326;2023-11-18T01:13:43;3.20;;;2.70;;
10565;SDS011;5331;48.148;16.326;2023-11-18T01:16:10;3.27;;;2.97;;
10565;SDS011;5331;48.148;16.326;2023-11-18T01:18:38;3.30;;;3.00;;
10565;SDS011;5331;48.148;16.326;2023-11-18T01:21:05;3.10;;;2.90;;
10565;SDS011;5331;48.148;16.326;2023-11-18T01:23:34;3.27;;;3.07;;
10565;SDS011;5331;48.148;16.326;2023-11-18T01:41:29;2.97;;;2.77;;
10565;SDS011;5331;48.148;16.326;2023-11-18T01:43:57;3.00;;;2.80;;
10565;SDS011;5331;48.148;16.326;2023-11-18T01:46:24;3.10;;;2.90;;
10565;SDS011;5331;48.148;16.326;2023-11-18T01:48:51;3.00;;;2.80;;
10565;SDS011;5331;48.148;16.326;2023-11-18T01:51:18;3.13;;;2.93;;
10565;SDS011;5331;48.148;16.326;2023-11-18T01:53:46;3.30;;;3.00;;
10565;SDS011;5331;48.148;16.326;2023-11-18T01:56:15;2.97;;;2.77;;
10565;SDS011;5331;48.148;16.326;2023-11-18T02:14:11;3.77;;;2.80;;
10565;SDS011;5331;48.148;16.326;2023-11-18T02:16:41;2.77;;;2.57;;
10565;SDS011;5331;48.148;16.326;2023-11-18T02:19:14;3.00;;;2.80;;
10565;SDS011;5331;48.148;16.326;2023-11-18T02:21:45;2.60;;;2.40;;
10565;SDS011;5331;48.148;16.326;2023-11-18T02:24:20;2.80;;;2.60;;
10565;SDS011;5331;48.148;16.326;2023-11-18T02:26:51;3.07;;;2.80;;
10565;SDS011;5331;48.148;16.326;2023-11-18T02:29:17;3.03;;;2.80;;
10565;SDS011;5331;48.148;16.326;2023-11-18T02:47:12;2.53;;;2.40;;
10565;SDS011;5331;48.148;16.326;2023-11-18T02:49:41;2.37;;;2.27;;
10565;SDS011;5331;48.148;16.326;2023-11-18T02:52:07;2.53;;;2.40;;
10565;SDS011;5331;48.148;16.326;2023-11-18T02:54:35;2.37;;;2.27;;
10565;SDS011;5331;48.148;16.326;2023-11-18T02:57:01;2.77;;;2.40;;
10565;SDS011;5331;48.148;16.326;2023-11-18T02:59:27;2.63;;;2.43;;
10565;SDS011;5331;48.148;16.326;2023-11-18T03:01:55;3.07;;;2.60;;
10565;SDS011;5331;48.148;16.326;2023-11-18T03:19:49;2.77;;;2.30;;
10565;SDS011;5331;48.148;16.326;2023-11-18T03:22:16;2.63;;;2.40;;
10565;SDS011;5331;48.148;16.326;2023-11-18T03:24:42;2.53;;;2.33;;
10565;SDS011;5331;48.148;16.326;2023-11-18T03:27:08;2.77;;;2.40;;
10565;SDS011;5331;48.148;16.326;2023-11-18T03:29:34;2.50;;;2.30;;
10565;SDS011;5331;48.148;16.326;2023-11-18T03:32:01;2.77;;;2.57;;
10565;SDS011;5331;48.148;16.326;2023-11-18T03:34:27;2.53;;;2.33;;
10565;SDS011;5331;48.148;16.326;2023-11-18T03:54:42;3.17;;;2.87;;
10565;SDS011;5331;48.148;16.326;2023-11-18T03:57:09;2.90;;;2.70;;
10565;SDS011;5331;48.148;16.326;2023-11-18T03:59:35;3.10;;;2.90;;
10565;SDS011;5331;48.148;16.326;2023-11-18T04:02:01;3.20;;;3.00;;
10565;SDS011;5331;48.148;16.326;2023-11-18T04:04:28;3.20;;;3.00;;
10565;SDS011;5331;48.148;16.326;2023-11-18T04:06:55;3.17;;;2.87;;
10565;SDS011;5331;48.148;16.326;2023-11-18T04:09:21;3.50;;;3.20;;
10565;SDS011;5331;48.148;16.326;2023-11-18T04:29:41;3.13;;;2.83;;
10565;SDS011;5331;48.148;16.326;2023-11-18T04:32:07;3.23;;;2.93;;
10565;SDS011;5331;48.148;16.326;2023-11-18T04:34:35;3.83;;;3.40;;
10565;SDS011;5331;48.148;16.326;2023-11-18T04:37:01;3.30;;;3.10;;
10565;SDS011;5331;48.148;16.326;2023-11-18T04:39:27;3.70;;;3.40;;
10565;SDS011;5331;48.148;16.326;2023-11-18T04:41:55;4.97;;;3.40;;
10565;SDS011;5331;48.148;16.326;2023-11-18T04:44:21;3.50;;;3.20;;
10565;SDS011;5331;48.148;16.326;2023-11-18T05:04:04;3.10;;;2.80;;
10565;SDS011;5331;48.148;16.326;2023-11-18T05:06:31;3.43;;;3.13;;
10565;SDS011;5331;48.148;16.326;2023-11-18T05:08:57;2.90;;;2.70;;
10565;SDS011;5331;48.148;16.326;2023-11-18T05:11:23;3.40;;;3.10;;
10565;SDS011;5331;48.148;16.326;2023-11-18T05:13:49;2.93;;;2.73;;
10565;SDS011;5331;48.148;16.326;2023-11-18T05:16:16;3.40;;;3.13;;
10565;SDS011;5331;48.148;16.326;2023-11-18T05:18:42;3.10;;;2.90;;
10565;SDS011;5331;48.148;16.326;2023-11-18T05:34:15;3.37;;;3.07;;
10565;SDS011;5331;48.148;16.326;2023-11-18T05:36:41;3.00;;;2.80;;
10565;SDS011;5331;48.148;16.326;2023-11-18T05:39:07;3.20;;;3.00;;
10565;SDS011;5331;48.148;16.326;2023-11-18T05:41:34;2.87;;;2.67;;
10565;SDS011;5331;48.148;16.326;2023-11-18T05:44:01;3.57;;;3.27;;
10565;SDS011;5331;48.148;16.326;2023-11-18T05:46:28;3.20;;;3.00;;
10565;SDS011;5331;48.148;16.326;2023-11-18T05:48:54;3.40;;;3.10;;
10565;SDS011;5331;48.148;16.326;2023-11-18T06:06:49;3.60;;;3.30;;
10565;SDS011;5331;48.148;16.326;2023-11-18T06:09:16;3.00;;;2.80;;
10565;SDS011;5331;48.148;16.326;2023-11-18T06:11:46;3.90;;;3.60;;
10565;SDS011;5331;48.148;16.326;2023-11-18T06:14:12;3.87;;;3.27;;
10565;SDS011;5331;48.148;16.326;2023-11-18T06:16:38;3.47;;;3.17;;
10565;SDS011;5331;48.148;16.326;2023-11-18T06:19:05;3.97;;;3.63;;
10565;SDS011;5331;48.148;16.326;2023-11-18T06:21:31;3.47;;;3.23;;
10565;SDS011;5331;48.148;16.326;2023-11-18T06:37:00;5.30;;;3.60;;
10565;SDS011;5331;48.148;16.326;2023-11-18T06:39:27;3.50;;;3.20;;
10565;SDS011;5331;48.148;16.326;2023-11-18T06:41:55;4.00;;;3.70;;
10565;SDS011;5331;48.148;16.326;2023-11-18T06:44:22;3.40;;;3.20;;
10565;SDS011;5331;48.148;16.326;2023-11-18T06:46:49;5.20;;;4.20;;
10565;SDS011;5331;48.148;16.326;2023-11-18T06:49:16;4.50;;;4.10;;
10565;SDS011;5331;48.148;16.326;2023-11-18T06:51:43;4.70;;;4.30;;
10565;SDS011;5331;48.148;16.326;2023-11-18T07:07:23;8.90;;;6.87;;
10565;SDS011;5331;48.148;16.326;2023-11-18T07:09:50;9.03;;;6.73;;
10565;SDS011;5331;48.148;16.326;2023-11-18T07:12:17;6.37;;;5.17;;
10565;SDS011;5331;48.148;16.326;2023-11-18T07:14:44;5.43;;;4.97;;
10565;SDS011;5331;48.148;16.326;2023-11-18T07:17:13;11.57;;;9.30;;
10565;SDS011;5331;48.148;16.326;2023-11-18T07:19:39;4.77;;;4.30;;
10565;SDS011;5331;48.148;16.326;2023-11-18T07:22:05;4.50;;;4.10;;
10565;SDS011;5331;48.148;16.326;2023-11-18T07:37:45;4.20;;;3.80;;
10565;SDS011;5331;48.148;16.326;2023-11-18T07:40:11;4.00;;;3.70;;
10565;SDS011;5331;48.148;16.326;2023-11-18T07:42:40;3.60;;;3.30;;
10565;SDS011;5331;48.148;16.326;2023-11-18T07:45:07;3.57;;;3.27;;
10565;SDS011;5331;48.148;16.326;2023-11-18T07:47:42;4.43;;;3.93;;
10565;SDS011;5331;48.148;16.326;2023-11-18T07:50:09;4.60;;;4.10;;
10565;SDS011;5331;48.148;16.326;2023-11-18T07:52:37;4.50;;;4.10;;
10565;SDS011;5331;48.148;16.326;2023-11-18T08:12:25;4.70;;;4.00;;
10565;SDS011;5331;48.148;16.326;2023-11-18T08:14:51;5.03;;;4.50;;
10565;SDS011;5331;48.148;16.326;2023-11-18T08:17:18;4.63;;;4.23;;
10565;SDS011;5331;48.148;16.326;2023-11-18T08:19:47;5.87;;;5.03;;
10565;SDS011;5331;48.148;16.326;2023-11-18T08:22:15;4.80;;;4.30;;
10565;SDS011;5331;48.148;16.326;2023-11-18T08:24:43;4.80;;;4.30;;
10565;SDS011;5331;48.148;16.326;2023-11-18T08:27:10;5.73;;;4.60;;
10565;SDS011;5331;48.148;16.326;2023-11-18T08:45:03;4.43;;;4.07;;
10565;SDS011;5331;48.148;16.326;2023-11-18T08:47:32;4.60;;;4.20;;
10565;SDS011;5331;48.148;16.326;2023-11-18T08:49:58;5.93;;;4.43;;
10565;SDS011;5331;48.148;16.326;2023-11-18T08:52:36;4.03;;;3.73;;
10565;SDS011;5331;48.148;16.326;2023-11-18T08:55:03;4.57;;;4.17;;
10565;SDS011;5331;48.148;16.326;2023-11-18T08:57:42;5.10;;;4.60;;
10565;SDS011;5331;48.148;16.326;2023-11-18T09:00:18;4.50;;;4.10;;
10565;SDS011;5331;48.148;16.326;2023-11-18T09:18:27;4.82;;;3.80;;
10565;SDS011;5331;48.148;16.326;2023-11-18T09:20:55;4.30;;;3.90;;
10565;SDS011;5331;48.148;16.326;2023-11-18T09:23:24;4.27;;;3.87;;
10565;SDS011;5331;48.148;16.326;2023-11-18T09:25:52;4.57;;;4.17;;
10565;SDS011;5331;48.148;16.326;2023-11-18T09:28:23;4.80;;;4.30;;
10565;SDS011;5331;48.148;16.326;2023-11-18T09:30:53;3.93;;;3.60;;
10565;SDS011;5331;48.148;16.326;2023-11-18T09:33:24;4.17;;;3.77;;
10565;SDS011;5331;48.148;16.326;2023-11-18T09:51:22;5.45;;;3.33;;
10565;SDS011;5331;48.148;16.326;2023-11-18T09:53:50;4.22;;;3.92;;
10565;SDS011;5331;48.148;16.326;2023-11-18T09:56:18;3.35;;;3.13;;
10565;SDS011;5331;48.148;16.326;2023-11-18T09:58:54;3.70;;;3.40;;
10565;SDS011;5331;48.148;16.326;2023-11-18T10:01:30;3.97;;;3.67;;
10565;SDS011;5331;48.148;16.326;2023-11-18T10:04:04;4.17;;;3.77;;
10565;SDS011;5331;48.148;16.326;2023-11-18T10:06:32;4.77;;;3.80;;
10565;SDS011;5331;48.148;16.326;2023-11-18T10:24:27;4.30;;;3.90;;
10565;SDS011;5331;48.148;16.326;2023-11-18T10:27:00;3.78;;;3.53;;
10565;SDS011;5331;48.148;16.326;2023-11-18T10:29:27;4.03;;;3.63;;
10565;SDS011;5331;48.148;16.326;2023-11-18T10:32:02;4.40;;;3.70;;
10565;SDS011;5331;48.148;16.326;2023-11-18T10:34:33;3.60;;;3.30;;
10565;SDS011;5331;48.148;16.326;2023-11-18T10:37:00;3.80;;;3.50;;
10565;SDS011;5331;48.148;16.326;2023-11-18T10:39:28;4.13;;;3.67;;
10565;SDS011;5331;48.148;16.326;2023-11-18T10:41:58;5.57;;;3.83;;
10565;SDS011;5331;48.148;16.326;2023-11-18T10:56:17;4.18;;;3.78;;
10565;SDS011;5331;48.148;16.326;2023-11-18T10:58:46;4.73;;;3.57;;
10565;SDS011;5331;48.148;16.326;2023-11-18T11:01:14;6.83;;;3.83;;
10565;SDS011;5331;48.148;16.326;2023-11-18T11:03:52;4.20;;;3.80;;
10565;SDS011;5331;48.148;16.326;2023-11-18T11:06:20;4.20;;;3.80;;
10565;SDS011;5331;48.148;16.326;2023-11-18T11:08:48;5.23;;;4.20;;
10565;SDS011;5331;48.148;16.326;2023-11-18T11:11:15;4.03;;;3.73;;
10565;SDS011;5331;48.148;16.326;2023-11-18T11:29:18;4.45;;;4.05;;
10565;SDS011;5331;48.148;16.326;2023-11-18T11:31:56;4.33;;;3.93;;
10565;SDS011;5331;48.148;16.326;2023-11-18T11:34:28;4.00;;;3.60;;
10565;SDS011;5331;48.148;16.326;2023-11-18T11:36:56;4.50;;;4.10;;
10565;SDS011;5331;48.148;16.326;2023-11-18T11:39:26;4.07;;;3.70;;
10565;SDS011;5331;48.148;16.326;2023-11-18T11:41:55;4.63;;;3.43;;
10565;SDS011;5331;48.148;16.326;2023-11-18T11:57:57;4.45;;;4.05;;
10565;SDS011;5331;48.148;16.326;2023-11-18T12:00:24;4.13;;;3.70;;
10565;SDS011;5331;48.148;16.326;2023-11-18T12:02:51;4.20;;;3.80;;
10565;SDS011;5331;48.148;16.326;2023-11-18T12:05:19;4.18;;;3.78;;
10565;SDS011;5331;48.148;16.326;2023-11-18T12:07:50;4.38;;;3.97;;
10565;SDS011;5331;48.148;16.326;2023-11-18T12:10:19;4.20;;;3.90;;
10565;SDS011;5331;48.148;16.326;2023-11-18T12:12:46;4.47;;;3.60;;
10565;SDS011;5331;48.148;16.326;2023-11-18T12:15:14;4.60;;;4.20;;
10565;SDS011;5331;48.148;16.326;2023-11-18T12:42:45;5.07;;;4.40;;
10565;SDS011;5331;48.148;16.326;2023-11-18T12:45:43;4.33;;;3.93;;
10565;SDS011;5331;48.148;16.326;2023-11-18T12:48:31;4.80;;;4.20;;
10565;SDS011;5331;48.148;16.326;2023-11-18T13:06:31;4.93;;;4.20;;
10565;SDS011;5331;48.148;16.326;2023-11-18T13:08:57;5.05;;;4.18;;
10565;SDS011;5331;48.148;16.326;2023-11-18T13:11:24;4.87;;;4.33;;
10565;SDS011;5331;48.148;16.326;2023-11-18T13:13:51;4.77;;;4.30;;
10565;SDS011;5331;48.148;16.326;2023-11-18T13:16:17;3.83;;;3.43;;
10565;SDS011;5331;48.148;16.326;2023-11-18T13:18:43;4.30;;;3.90;;
10565;SDS011;5331;48.148;16.326;2023-11-18T13:21:14;4.53;;;3.70;;
10565;SDS011;5331;48.148;16.326;2023-11-18T13:41:28;3.90;;;3.60;;
10565;SDS011;5331;48.148;16.326;2023-11-18T13:43:56;4.00;;;3.70;;
10565;SDS011;5331;48.148;16.326;2023-11-18T13:46:22;4.37;;;3.60;;
10565;SDS011;5331;48.148;16.326;2023-11-18T13:48:48;4.00;;;3.70;;
10565;SDS011;5331;48.148;16.326;2023-11-18T13:51:15;3.80;;;3.50;;
10565;SDS011;5331;48.148;16.326;2023-11-18T13:53:42;4.30;;;3.90;;
10565;SDS011;5331;48.148;16.326;2023-11-18T13:56:09;3.80;;;3.50;;
10565;SDS011;5331;48.148;16.326;2023-11-18T14:16:03;3.83;;;3.40;;
10565;SDS011;5331;48.148;16.326;2023-11-18T14:18:34;3.93;;;3.57;;
10565;SDS011;5331;48.148;16.326;2023-11-18T14:21:01;4.17;;;3.87;;
10565;SDS011;5331;48.148;16.326;2023-11-18T14:23:30;5.70;;;4.10;;
10565;SDS011;5331;48.148;16.326;2023-11-18T14:25:57;4.47;;;3.83;;
10565;SDS011;5331;48.148;16.326;2023-11-18T14:28:23;4.07;;;3.77;;
10565;SDS011;5331;48.148;16.326;2023-11-18T14:30:51;4.10;;;3.70;;
10565;SDS011;5331;48.148;16.326;2023-11-18T14:46:33;2.90;;;2.70;;
10565;SDS011;5331;48.148;16.326;2023-11-18T14:48:59;3.33;;;3.03;;
10565;SDS011;5331;48.148;16.326;2023-11-18T14:51:25;3.47;;;3.17;;
10565;SDS011;5331;48.148;16.326;2023-11-18T14:53:52;3.17;;;2.97;;
10565;SDS011;5331;48.148;16.326;2023-11-18T14:56:18;3.23;;;3.00;;
10565;SDS011;5331;48.148;16.326;2023-11-18T14:58:44;3.20;;;2.90;;
10565;SDS011;5331;48.148;16.326;2023-11-18T15:01:14;3.23;;;2.93;;
10565;SDS011;5331;48.148;16.326;2023-11-18T15:21:38;2.20;;;2.10;;
10565;SDS011;5331;48.148;16.326;2023-11-18T15:24:04;2.37;;;2.27;;
10565;SDS011;5331;48.148;16.326;2023-11-18T15:26:31;2.50;;;2.40;;
10565;SDS011;5331;48.148;16.326;2023-11-18T15:28:57;2.87;;;2.20;;
10565;SDS011;5331;48.148;16.326;2023-11-18T15:31:24;2.43;;;2.33;;
10565;SDS011;5331;48.148;16.326;2023-11-18T15:33:50;2.30;;;2.20;;
10565;SDS011;5331;48.148;16.326;2023-11-18T15:36:16;2.30;;;2.20;;
10565;SDS011;5331;48.148;16.326;2023-11-18T15:54:10;2.70;;;2.50;;
10565;SDS011;5331;48.148;16.326;2023-11-18T15:56:40;2.63;;;2.50;;
10565;SDS011;5331;48.148;16.326;2023-11-18T15:59:07;2.77;;;2.57;;
10565;SDS011;5331;48.148;16.326;2023-11-18T16:01:33;2.90;;;2.70;;
10565;SDS011;5331;48.148;16.326;2023-11-18T16:04:00;2.70;;;2.50;;
10565;SDS011;5331;48.148;16.326;2023-11-18T16:06:26;2.70;;;2.50;;
10565;SDS011;5331;48.148;16.326;2023-11-18T16:08:52;3.00;;;2.70;;
10565;SDS011;5331;48.148;16.326;2023-11-18T16:25:02;3.60;;;3.37;;
10565;SDS011;5331;48.148;16.326;2023-11-18T16:27:29;3.27;;;2.97;;
10565;SDS011;5331;48.148;16.326;2023-11-18T16:29:55;4.00;;;3.70;;
10565;SDS011;5331;48.148;16.326;2023-11-18T16:32:21;3.77;;;3.47;;
10565;SDS011;5331;48.148;16.326;2023-11-18T16:34:48;4.47;;;4.10;;
10565;SDS011;5331;48.148;16.326;2023-11-18T16:37:14;4.87;;;4.27;;
10565;SDS011;5331;48.148;16.326;2023-11-18T16:39:40;5.57;;;5.07;;
10565;SDS011;5331;48.148;16.326;2023-11-18T16:57:30;6.70;;;6.00;;
10565;SDS011;5331;48.148;16.326;2023-11-18T17:00:00;22.57;;;16.03;;
10565;SDS011;5331;48.148;16.326;2023-11-18T17:02:28;8.43;;;7.10;;
10565;SDS011;5331;48.148;16.326;2023-11-18T17:04:54;6.27;;;5.67;;
10565;SDS011;5331;48.148;16.326;2023-11-18T17:07:20;8.20;;;7.37;;
10565;SDS011;5331;48.148;16.326;2023-11-18T17:09:47;6.90;;;6.20;;
10565;SDS011;5331;48.148;16.326;2023-11-18T17:12:13;8.83;;;7.27;;
10565;SDS011;5331;48.148;16.326;2023-11-18T17:30:09;4.23;;;3.90;;
10565;SDS011;5331;48.148;16.326;2023-11-18T17:32:37;5.67;;;5.00;;
10565;SDS011;5331;48.148;16.326;2023-11-18T17:35:04;4.37;;;3.97;;
10565;SDS011;5331;48.148;16.326;2023-11-18T17:37:31;4.63;;;4.23;;
10565;SDS011;5331;48.148;16.326;2023-11-18T17:39:57;5.33;;;4.83;;
10565;SDS011;5331;48.148;16.326;2023-11-18T17:42:23;8.83;;;7.93;;
10565;SDS011;5331;48.148;16.326;2023-11-18T17:44:49;5.90;;;5.40;;
10565;SDS011;5331;48.148;16.326;2023-11-18T18:04:45;4.97;;;4.47;;
10565;SDS011;5331;48.148;16.326;2023-11-18T18:07:12;5.87;;;5.37;;
10565;SDS011;5331;48.148;16.326;2023-11-18T18:09:38;9.20;;;7.27;;
10565;SDS011;5331;48.148;16.326;2023-11-18T18:12:05;15.00;;;10.30;;
10565;SDS011;5331;48.148;16.326;2023-11-18T18:14:33;8.90;;;7.27;;
10565;SDS011;5331;48.148;16.326;2023-11-18T18:16:59;15.70;;;9.60;;
10565;SDS011;5331;48.148;16.326;2023-11-18T18:19:31;8.30;;;7.40;;
10565;SDS011;5331;48.148;16.326;2023-11-18T18:37:27;12.53;;;8.53;;
10565;SDS011;5331;48.148;16.326;2023-11-18T18:39:53;7.33;;;6.37;;
10565;SDS011;5331;48.148;16.326;2023-11-18T18:42:20;8.37;;;7.07;;
10565;SDS011;5331;48.148;16.326;2023-11-18T18:44:46;10.27;;;8.70;;
10565;SDS011;5331;48.148;16.326;2023-11-18T18:47:12;8.07;;;6.53;;
10565;SDS011;5331;48.148;16.326;2023-11-18T18:49:38;6.33;;;5.07;;
10565;SDS011;5331;48.148;16.326;2023-11-18T18:52:05;5.33;;;4.80;;
10565;SDS011;5331;48.148;16.326;2023-11-18T18:54:32;5.00;;;4.60;;
10565;SDS011;5331;48.148;16.326;2023-11-18T19:12:20;5.43;;;4.53;;
10565;SDS011;5331;48.148;16.326;2023-11-18T19:14:47;5.20;;;4.70;;
10565;SDS011;5331;48.148;16.326;2023-11-18T19:17:13;5.03;;;4.53;;
10565;SDS011;5331;48.148;16.326;2023-11-18T19:19:41;5.57;;;4.80;;
10565;SDS011;5331;48.148;16.326;2023-11-18T19:22:07;5.73;;;5.23;;
10565;SDS011;5331;48.148;16.326;2023-11-18T19:24:33;7.53;;;6.73;;
10565;SDS011;5331;48.148;16.326;2023-11-18T19:26:59;6.90;;;6.30;;
10565;SDS011;5331;48.148;16.326;2023-11-18T19:47:01;11.83;;;8.57;;
10565;SDS011;5331;48.148;16.326;2023-11-18T19:49:28;11.53;;;8.03;;
10565;SDS011;5331;48.148;16.326;2023-11-18T19:51:58;12.30;;;8.97;;
10565;SDS011;5331;48.148;16.326;2023-11-18T19:54:24;10.93;;;8.20;;
10565;SDS011;5331;48.148;16.326;2023-11-18T19:56:51;9.93;;;7.70;;
10565;SDS011;5331;48.148;16.326;2023-11-18T19:59:17;10.27;;;8.00;;
10565;SDS011;5331;48.148;16.326;2023-11-18T20:01:43;9.53;;;7.67;;
10565;SDS011;5331;48.148;16.326;2023-11-18T20:19:36;7.73;;;6.70;;
10565;SDS011;5331;48.148;16.326;2023-11-18T20:22:05;8.13;;;7.10;;
10565;SDS011;5331;48.148;16.326;2023-11-18T20:24:32;8.23;;;7.07;;
10565;SDS011;5331;48.148;16.326;2023-11-18T20:26:59;7.70;;;6.70;;
10565;SDS011;5331;48.148;16.326;2023-11-18T20:29:26;7.87;;;7.07;;
10565;SDS011;5331;48.148;16.326;2023-11-18T20:31:54;9.70;;;7.67;;
10565;SDS011;5331;48.148;16.326;2023-11-18T20:34:21;7.70;;;6.90;;
10565;SDS011;5331;48.148;16.326;2023-11-18T20:36:48;8.77;;;7.53;;
10565;SDS011;5331;48.148;16.326;2023-11-18T20:54:41;11.57;;;8.77;;
10565;SDS011;5331;48.148;16.326;2023-11-18T20:57:07;11.83;;;9.13;;
10565;SDS011;5331;48.148;16.326;2023-11-18T20:59:33;11.90;;;9.43;;
10565;SDS011;5331;48.148;16.326;2023-11-18T21:02:00;11.97;;;9.40;;
10565;SDS011;5331;48.148;16.326;2023-11-18T21:04:26;11.43;;;9.10;;
10565;SDS011;5331;48.148;16.326;2023-11-18T21:06:54;12.77;;;9.10;;
10565;SDS011;5331;48.148;16.326;2023-11-18T21:09:20;11.93;;;9.33;;
10565;SDS011;5331;48.148;16.326;2023-11-18T21:27:12;14.10;;;10.37;;
10565;SDS011;5331;48.148;16.326;2023-11-18T21:29:39;13.53;;;10.50;;
10565;SDS011;5331;48.148;16.326;2023-11-18T21:32:06;12.57;;;10.47;;
10565;SDS011;5331;48.148;16.326;2023-11-18T21:34:32;13.20;;;10.33;;
10565;SDS011;5331;48.148;16.326;2023-11-18T21:36:58;12.83;;;9.93;;
10565;SDS011;5331;48.148;16.326;2023-11-18T21:39:24;12.23;;;10.07;;
10565;SDS011;5331;48.148;16.326;2023-11-18T21:41:51;11.17;;;9.57;;
10565;SDS011;5331;48.148;16.326;2023-11-18T21:57:23;10.67;;;8.80;;
10565;SDS011;5331;48.148;16.326;2023-11-18T21:59:49;10.23;;;8.50;;
10565;SDS011;5331;48.148;16.326;2023-11-18T22:02:16;11.10;;;9.17;;
10565;SDS011;5331;48.148;16.326;2023-11-18T22:04:42;12.20;;;9.40;;
10565;SDS011;5331;48.148;16.326;2023-11-18T22:07:08;62.90;;;27.30;;
10565;SDS011;5331;48.148;16.326;2023-11-18T22:09:36;20.77;;;13.30;;
10565;SDS011;5331;48.148;16.326;2023-11-18T22:12:02;13.87;;;10.50;;
10565;SDS011;5331;48.148;16.326;2023-11-18T22:27:41;11.43;;;8.43;;
10565;SDS011;5331;48.148;16.326;2023-11-18T22:30:08;10.50;;;8.90;;
10565;SDS011;5331;48.148;16.326;2023-11-18T22:32:37;10.63;;;8.73;;
10565;SDS011;5331;48.148;16.326;2023-11-18T22:35:03;9.60;;;8.30;;
10565;SDS011;5331;48.148;16.326;2023-11-18T22:37:31;11.13;;;8.40;;
10565;SDS011;5331;48.148;16.326;2023-11-18T22:39:58;11.17;;;8.67;;
10565;SDS011;5331;48.148;16.326;2023-11-18T22:42:24;10.27;;;7.67;;
10565;SDS011;5331;48.148;16.326;2023-11-18T23:00:18;6.53;;;5.93;;
10565;SDS011;5331;48.148;16.326;2023-11-18T23:02:59;7.70;;;6.90;;
10565;SDS011;5331;48.148;16.326;2023-11-18T23:05:26;7.80;;;6.73;;
10565;SDS011;5331;48.148;16.326;2023-11-18T23:07:53;7.77;;;6.60;;
10565;SDS011;5331;48.148;16.326;2023-11-18T23:10:21;7.13;;;6.33;;
10565;SDS011;5331;48.148;16.326;2023-11-18T23:12:49;7.03;;;6.03;;
10565;SDS011;5331;48.148;16.326;2023-11-18T23:15:15;8.73;;;7.23;;
10565;SDS011;5331;48.148;16.326;2023-11-18T23:33:10;7.67;;;6.10;;
10565;SDS011;5331;48.148;16.326;2023-11-18T23:35:36;6.87;;;6.17;;
10565;SDS011;5331;48.148;16.326;2023-11-18T23:38:04;8.63;;;6.73;;
10565;SDS011;5331;48.148;16.326;2023-11-18T23:40:30;7.47;;;6.43;;
10565;SDS011;5331;48.148;16.326;2023-11-18T23:42:58;8.20;;;6.87;;
10565;SDS011;5331;48.148;16.326;2023-11-18T23:45:24;9.13;;;7.47;;
10565;SDS011;5331;48.148;16.326;2023-11-18T23:47:50;7.73;;;6.93;;
